sensor_id;sensor_type;location;lat;lon;timestamp;P1;P2;P0
21358;PMS7003;13506;50.852;20.632;2023-06-22T00:00:26;8.60;7.80;4.00
21358;PMS7003;13506;50.852;20.632;2023-06-22T00:03:15;9.60;9.60;5.80
21358;PMS7003;13506;50.852;20.632;2023-06-22T00:05:45;9.60;8.00;4.80
21358;PMS7003;13506;50.852;20.632;2023-06-22T00:08:14;8.20;7.40;4.80
21358;PMS7003;13506;50.852;20.632;2023-06-22T00:10:44;10.00;8.40;4.20
21358;PMS7003;13506;50.852;20.632;2023-06-22T00:13:13;8.00;8.00;5.00
21358;PMS7003;13506;50.852;20.632;2023-06-22T00:15:42;8.80;8.80;5.40
21358;PMS7003;13506;50.852;20.632;2023-06-22T00:18:11;11.80;10.20;5.20
21358;PMS7003;13506;50.852;20.632;2023-06-22T00:20:39;11.75;10.50;5.50
21358;PMS7003;13506;50.852;20.632;2023-06-22T00:23:08;11.20;10.00;5.60
21358;PMS7003;13506;50.852;20.632;2023-06-22T00:25:36;10.80;8.00;5.00
21358;PMS7003;13506;50.852;20.632;2023-06-22T00:28:07;11.00;9.00;5.20
21358;PMS7003;13506;50.852;20.632;2023-06-22T00:30:35;12.40;11.40;6.20
21358;PMS7003;13506;50.852;20.632;2023-06-22T00:33:04;12.40;10.60;5.60
21358;PMS7003;13506;50.852;20.632;2023-06-22T00:35:32;11.20;10.80;6.00
21358;PMS7003;13506;50.852;20.632;2023-06-22T00:38:01;14.40;10.40;4.60
21358;PMS7003;13506;50.852;20.632;2023-06-22T00:40:30;9.40;9.40;4.40
21358;PMS7003;13506;50.852;20.632;2023-06-22T00:43:00;12.40;9.80;6.00
21358;PMS7003;13506;50.852;20.632;2023-06-22T00:45:30;11.20;9.00;4.00
21358;PMS7003;13506;50.852;20.632;2023-06-22T00:47:58;10.40;10.40;5.80
21358;PMS7003;13506;50.852;20.632;2023-06-22T00:50:27;13.60;12.20;6.20
21358;PMS7003;13506;50.852;20.632;2023-06-22T00:53:01;11.60;10.60;5.60
21358;PMS7003;13506;50.852;20.632;2023-06-22T00:55:33;10.40;10.40;6.00
21358;PMS7003;13506;50.852;20.632;2023-06-22T00:58:04;11.00;10.00;5.00
21358;PMS7003;13506;50.852;20.632;2023-06-22T01:00:37;13.60;10.60;6.00
21358;PMS7003;13506;50.852;20.632;2023-06-22T01:03:06;10.60;9.20;5.20
21358;PMS7003;13506;50.852;20.632;2023-06-22T01:05:35;11.60;9.60;5.00
21358;PMS7003;13506;50.852;20.632;2023-06-22T01:08:13;13.00;11.00;6.60
21358;PMS7003;13506;50.852;20.632;2023-06-22T01:10:51;11.80;11.00;5.40
21358;PMS7003;13506;50.852;20.632;2023-06-22T01:13:25;14.50;12.00;6.00
21358;PMS7003;13506;50.852;20.632;2023-06-22T01:16:02;13.80;12.40;6.80
21358;PMS7003;13506;50.852;20.632;2023-06-22T01:18:34;11.00;9.20;5.40
21358;PMS7003;13506;50.852;20.632;2023-06-22T01:21:04;10.60;9.20;5.20
21358;PMS7003;13506;50.852;20.632;2023-06-22T01:23:39;14.40;14.40;6.80
21358;PMS7003;13506;50.852;20.632;2023-06-22T01:26:19;15.40;11.00;6.20
21358;PMS7003;13506;50.852;20.632;2023-06-22T01:28:55;11.40;11.40;5.20
21358;PMS7003;13506;50.852;20.632;2023-06-22T01:31:27;13.75;13.50;6.00
21358;PMS7003;13506;50.852;20.632;2023-06-22T01:33:58;13.20;11.80;7.00
21358;PMS7003;13506;50.852;20.632;2023-06-22T01:36:29;11.60;10.00;5.40
21358;PMS7003;13506;50.852;20.632;2023-06-22T01:39:00;13.00;11.40;6.00
21358;PMS7003;13506;50.852;20.632;2023-06-22T01:41:29;13.00;12.40;6.40
21358;PMS7003;13506;50.852;20.632;2023-06-22T01:44:04;12.40;9.80;5.40
21358;PMS7003;13506;50.852;20.632;2023-06-22T01:46:35;14.00;11.60;6.00
21358;PMS7003;13506;50.852;20.632;2023-06-22T01:49:04;12.20;11.20;6.20
21358;PMS7003;13506;50.852;20.632;2023-06-22T01:51:33;12.20;11.80;6.20
21358;PMS7003;13506;50.852;20.632;2023-06-22T01:54:01;18.40;15.00;8.00
21358;PMS7003;13506;50.852;20.632;2023-06-22T01:56:29;14.60;12.60;6.00
21358;PMS7003;13506;50.852;20.632;2023-06-22T01:59:00;14.40;12.60;6.80
21358;PMS7003;13506;50.852;20.632;2023-06-22T02:01:39;14.80;12.40;7.20
21358;PMS7003;13506;50.852;20.632;2023-06-22T02:04:12;16.80;14.40;8.00
21358;PMS7003;13506;50.852;20.632;2023-06-22T02:06:45;12.80;12.40;7.00
21358;PMS7003;13506;50.852;20.632;2023-06-22T02:09:18;15.20;13.40;7.40
21358;PMS7003;13506;50.852;20.632;2023-06-22T02:11:48;18.80;11.80;7.20
21358;PMS7003;13506;50.852;20.632;2023-06-22T02:14:24;17.20;13.40;8.00
21358;PMS7003;13506;50.852;20.632;2023-06-22T02:16:53;13.40;12.60;7.60
21358;PMS7003;13506;50.852;20.632;2023-06-22T02:19:24;14.80;14.20;7.80
21358;PMS7003;13506;50.852;20.632;2023-06-22T02:21:58;19.80;14.80;8.40
21358;PMS7003;13506;50.852;20.632;2023-06-22T02:24:27;18.00;14.60;8.00
21358;PMS7003;13506;50.852;20.632;2023-06-22T02:26:57;17.00;16.80;9.00
21358;PMS7003;13506;50.852;20.632;2023-06-22T02:29:28;17.40;15.80;8.60
21358;PMS7003;13506;50.852;20.632;2023-06-22T02:31:56;17.00;16.80;8.00
21358;PMS7003;13506;50.852;20.632;2023-06-22T02:34:24;16.40;16.20;9.80
21358;PMS7003;13506;50.852;20.632;2023-06-22T02:36:52;18.20;18.00;9.00
21358;PMS7003;13506;50.852;20.632;2023-06-22T02:39:22;17.80;15.40;9.00
21358;PMS7003;13506;50.852;20.632;2023-06-22T02:41:51;17.80;16.20;9.00
21358;PMS7003;13506;50.852;20.632;2023-06-22T02:44:22;17.40;14.60;8.60
21358;PMS7003;13506;50.852;20.632;2023-06-22T02:46:51;16.50;13.50;8.00
21358;PMS7003;13506;50.852;20.632;2023-06-22T02:49:20;17.00;15.25;8.00
21358;PMS7003;13506;50.852;20.632;2023-06-22T02:51:49;18.60;15.80;10.20
21358;PMS7003;13506;50.852;20.632;2023-06-22T02:54:20;15.40;14.20;7.80
21358;PMS7003;13506;50.852;20.632;2023-06-22T02:56:51;15.60;15.00;8.00
21358;PMS7003;13506;50.852;20.632;2023-06-22T02:59:21;22.60;20.00;9.00
21358;PMS7003;13506;50.852;20.632;2023-06-22T03:01:53;17.25;16.25;10.00
21358;PMS7003;13506;50.852;20.632;2023-06-22T03:04:26;17.50;17.25;10.75
21358;PMS7003;13506;50.852;20.632;2023-06-22T03:06:54;18.80;15.40;8.80
21358;PMS7003;13506;50.852;20.632;2023-06-22T03:09:22;18.60;18.40;9.40
21358;PMS7003;13506;50.852;20.632;2023-06-22T03:11:50;24.80;18.60;10.60
21358;PMS7003;13506;50.852;20.632;2023-06-22T03:14:20;20.00;16.60;9.00
21358;PMS7003;13506;50.852;20.632;2023-06-22T03:16:47;18.80;17.80;9.40
21358;PMS7003;13506;50.852;20.632;2023-06-22T03:19:20;21.60;17.00;9.00
21358;PMS7003;13506;50.852;20.632;2023-06-22T03:21:48;18.00;18.00;10.20
21358;PMS7003;13506;50.852;20.632;2023-06-22T03:24:16;15.60;14.80;8.80
21358;PMS7003;13506;50.852;20.632;2023-06-22T03:26:44;19.60;16.80;9.00
21358;PMS7003;13506;50.852;20.632;2023-06-22T03:29:13;23.75;21.25;10.00
21358;PMS7003;13506;50.852;20.632;2023-06-22T03:31:42;20.75;19.75;12.50
21358;PMS7003;13506;50.852;20.632;2023-06-22T03:34:10;20.00;17.60;10.80
21358;PMS7003;13506;50.852;20.632;2023-06-22T03:36:39;21.75;19.50;11.00
21358;PMS7003;13506;50.852;20.632;2023-06-22T03:39:11;18.60;16.20;9.00
21358;PMS7003;13506;50.852;20.632;2023-06-22T03:41:40;21.60;17.80;9.80
21358;PMS7003;13506;50.852;20.632;2023-06-22T03:44:08;20.20;17.40;9.80
21358;PMS7003;13506;50.852;20.632;2023-06-22T03:46:38;23.00;20.50;11.75
21358;PMS7003;13506;50.852;20.632;2023-06-22T03:49:07;22.20;18.60;9.20
21358;PMS7003;13506;50.852;20.632;2023-06-22T03:51:35;22.60;18.20;9.80
21358;PMS7003;13506;50.852;20.632;2023-06-22T03:54:05;22.60;18.00;9.00
21358;PMS7003;13506;50.852;20.632;2023-06-22T03:56:33;22.25;20.00;10.00
21358;PMS7003;13506;50.852;20.632;2023-06-22T03:59:02;22.00;19.00;10.75
21358;PMS7003;13506;50.852;20.632;2023-06-22T04:01:29;21.25;19.00;11.50
21358;PMS7003;13506;50.852;20.632;2023-06-22T04:03:57;29.00;23.25;14.00
21358;PMS7003;13506;50.852;20.632;2023-06-22T04:06:27;23.25;21.75;10.75
21358;PMS7003;13506;50.852;20.632;2023-06-22T04:08:55;20.75;20.75;11.50
21358;PMS7003;13506;50.852;20.632;2023-06-22T04:11:24;27.00;23.25;12.00
21358;PMS7003;13506;50.852;20.632;2023-06-22T04:13:52;23.50;21.00;12.75
21358;PMS7003;13506;50.852;20.632;2023-06-22T04:16:21;26.25;24.00;12.75
21358;PMS7003;13506;50.852;20.632;2023-06-22T04:18:49;26.75;22.75;12.25
21358;PMS7003;13506;50.852;20.632;2023-06-22T04:21:17;22.75;20.00;12.25
21358;PMS7003;13506;50.852;20.632;2023-06-22T04:23:46;26.25;22.25;15.75
21358;PMS7003;13506;50.852;20.632;2023-06-22T04:26:14;22.00;19.50;11.25
21358;PMS7003;13506;50.852;20.632;2023-06-22T04:28:43;26.25;20.50;11.00
21358;PMS7003;13506;50.852;20.632;2023-06-22T04:31:17;23.00;21.75;11.25
21358;PMS7003;13506;50.852;20.632;2023-06-22T04:33:45;23.25;20.75;13.25
21358;PMS7003;13506;50.852;20.632;2023-06-22T04:36:13;25.50;22.00;13.00
21358;PMS7003;13506;50.852;20.632;2023-06-22T04:38:41;27.50;25.25;15.25
21358;PMS7003;13506;50.852;20.632;2023-06-22T04:41:09;27.25;23.25;14.25
21358;PMS7003;13506;50.852;20.632;2023-06-22T04:43:50;22.75;19.75;12.50
21358;PMS7003;13506;50.852;20.632;2023-06-22T04:46:19;26.25;24.00;15.00
21358;PMS7003;13506;50.852;20.632;2023-06-22T04:48:48;29.50;27.25;15.00
21358;PMS7003;13506;50.852;20.632;2023-06-22T04:51:16;37.25;27.00;16.00
21358;PMS7003;13506;50.852;20.632;2023-06-22T04:53:47;38.00;29.75;18.75
21358;PMS7003;13506;50.852;20.632;2023-06-22T04:56:15;33.50;30.25;19.00
21358;PMS7003;13506;50.852;20.632;2023-06-22T04:58:44;38.00;28.75;17.50
21358;PMS7003;13506;50.852;20.632;2023-06-22T05:01:13;35.75;30.75;18.00
21358;PMS7003;13506;50.852;20.632;2023-06-22T05:03:41;34.50;27.75;16.25
21358;PMS7003;13506;50.852;20.632;2023-06-22T05:06:09;37.75;30.50;17.50
21358;PMS7003;13506;50.852;20.632;2023-06-22T05:08:40;36.00;28.25;19.75
21358;PMS7003;13506;50.852;20.632;2023-06-22T05:11:07;34.50;31.25;18.50
21358;PMS7003;13506;50.852;20.632;2023-06-22T05:13:35;41.50;33.00;18.00
21358;PMS7003;13506;50.852;20.632;2023-06-22T05:16:04;38.00;31.25;18.75
21358;PMS7003;13506;50.852;20.632;2023-06-22T05:18:33;39.25;32.25;20.75
21358;PMS7003;13506;50.852;20.632;2023-06-22T05:21:02;39.50;32.50;20.00
21358;PMS7003;13506;50.852;20.632;2023-06-22T05:23:30;39.75;32.50;19.75
21358;PMS7003;13506;50.852;20.632;2023-06-22T05:25:58;38.25;31.50;19.00
21358;PMS7003;13506;50.852;20.632;2023-06-22T05:28:26;40.25;34.00;20.00
21358;PMS7003;13506;50.852;20.632;2023-06-22T05:30:54;37.25;33.00;20.00
21358;PMS7003;13506;50.852;20.632;2023-06-22T05:33:22;39.50;32.00;19.75
21358;PMS7003;13506;50.852;20.632;2023-06-22T05:35:51;45.50;34.75;21.75
21358;PMS7003;13506;50.852;20.632;2023-06-22T05:38:20;38.00;32.25;19.75
21358;PMS7003;13506;50.852;20.632;2023-06-22T05:40:48;39.50;32.75;20.25
21358;PMS7003;13506;50.852;20.632;2023-06-22T05:43:16;38.25;31.00;18.75
21358;PMS7003;13506;50.852;20.632;2023-06-22T05:45:44;39.00;31.25;19.00
21358;PMS7003;13506;50.852;20.632;2023-06-22T05:48:12;32.50;30.25;19.50
21358;PMS7003;13506;50.852;20.632;2023-06-22T05:50:40;35.50;29.25;17.75
21358;PMS7003;13506;50.852;20.632;2023-06-22T05:53:10;43.50;33.00;20.75
21358;PMS7003;13506;50.852;20.632;2023-06-22T05:55:38;42.50;34.00;21.00
21358;PMS7003;13506;50.852;20.632;2023-06-22T05:58:06;48.50;34.75;22.00
21358;PMS7003;13506;50.852;20.632;2023-06-22T06:00:36;35.75;31.00;19.75
21358;PMS7003;13506;50.852;20.632;2023-06-22T06:03:04;46.50;35.25;20.25
21358;PMS7003;13506;50.852;20.632;2023-06-22T06:05:32;36.25;32.00;20.75
21358;PMS7003;13506;50.852;20.632;2023-06-22T06:08:01;37.25;30.75;18.75
21358;PMS7003;13506;50.852;20.632;2023-06-22T06:10:31;39.00;31.75;19.25
21358;PMS7003;13506;50.852;20.632;2023-06-22T06:13:00;44.00;34.25;20.50
21358;PMS7003;13506;50.852;20.632;2023-06-22T06:15:31;40.00;33.25;20.25
21358;PMS7003;13506;50.852;20.632;2023-06-22T06:18:01;36.25;31.75;19.50
21358;PMS7003;13506;50.852;20.632;2023-06-22T06:20:30;34.00;31.25;20.00
21358;PMS7003;13506;50.852;20.632;2023-06-22T06:22:59;36.25;32.00;18.75
21358;PMS7003;13506;50.852;20.632;2023-06-22T06:25:27;38.75;31.50;19.00
21358;PMS7003;13506;50.852;20.632;2023-06-22T06:27:57;38.75;32.50;19.00
21358;PMS7003;13506;50.852;20.632;2023-06-22T06:30:24;33.25;28.75;18.00
21358;PMS7003;13506;50.852;20.632;2023-06-22T06:32:53;29.50;26.50;17.75
21358;PMS7003;13506;50.852;20.632;2023-06-22T06:35:21;29.75;27.00;15.75
21358;PMS7003;13506;50.852;20.632;2023-06-22T06:37:50;39.50;29.50;17.75
21358;PMS7003;13506;50.852;20.632;2023-06-22T06:40:18;28.75;27.00;18.00
21358;PMS7003;13506;50.852;20.632;2023-06-22T06:42:47;36.25;28.00;17.50
21358;PMS7003;13506;50.852;20.632;2023-06-22T06:45:17;32.25;29.50;18.00
21358;PMS7003;13506;50.852;20.632;2023-06-22T06:47:48;32.75;29.00;17.25
21358;PMS7003;13506;50.852;20.632;2023-06-22T06:50:17;33.00;28.00;17.00
21358;PMS7003;13506;50.852;20.632;2023-06-22T06:52:46;28.25;24.50;14.75
21358;PMS7003;13506;50.852;20.632;2023-06-22T06:55:15;33.25;27.25;15.25
21358;PMS7003;13506;50.852;20.632;2023-06-22T06:57:44;28.75;25.75;15.75
21358;PMS7003;13506;50.852;20.632;2023-06-22T07:00:14;30.00;25.75;14.25
21358;PMS7003;13506;50.852;20.632;2023-06-22T07:02:44;29.75;23.25;15.00
21358;PMS7003;13506;50.852;20.632;2023-06-22T07:05:13;31.25;26.25;14.50
21358;PMS7003;13506;50.852;20.632;2023-06-22T07:07:42;29.25;26.00;15.25
21358;PMS7003;13506;50.852;20.632;2023-06-22T07:10:10;31.50;26.75;15.50
21358;PMS7003;13506;50.852;20.632;2023-06-22T07:12:38;31.00;27.25;15.25
21358;PMS7003;13506;50.852;20.632;2023-06-22T07:15:07;30.00;26.25;15.00
21358;PMS7003;13506;50.852;20.632;2023-06-22T07:17:37;33.75;28.50;18.00
21358;PMS7003;13506;50.852;20.632;2023-06-22T07:20:08;30.00;26.50;17.00
21358;PMS7003;13506;50.852;20.632;2023-06-22T07:22:38;29.00;27.00;16.00
21358;PMS7003;13506;50.852;20.632;2023-06-22T07:25:06;31.25;26.75;15.50
21358;PMS7003;13506;50.852;20.632;2023-06-22T07:27:36;29.00;26.75;16.50
21358;PMS7003;13506;50.852;20.632;2023-06-22T07:30:05;32.25;28.00;15.25
21358;PMS7003;13506;50.852;20.632;2023-06-22T07:32:34;32.25;28.00;17.00
21358;PMS7003;13506;50.852;20.632;2023-06-22T07:35:03;30.25;27.25;16.25
21358;PMS7003;13506;50.852;20.632;2023-06-22T07:37:33;37.25;29.50;18.00
21358;PMS7003;13506;50.852;20.632;2023-06-22T07:40:01;33.50;28.50;18.00
21358;PMS7003;13506;50.852;20.632;2023-06-22T07:42:32;42.50;32.00;20.00
21358;PMS7003;13506;50.852;20.632;2023-06-22T07:45:00;49.00;38.50;25.25
21358;PMS7003;13506;50.852;20.632;2023-06-22T07:47:29;37.25;29.75;18.50
21358;PMS7003;13506;50.852;20.632;2023-06-22T07:50:01;30.75;29.00;18.25
21358;PMS7003;13506;50.852;20.632;2023-06-22T07:52:30;36.75;29.75;18.25
21358;PMS7003;13506;50.852;20.632;2023-06-22T07:55:00;27.75;26.50;16.75
21358;PMS7003;13506;50.852;20.632;2023-06-22T07:57:28;29.75;26.50;17.00
21358;PMS7003;13506;50.852;20.632;2023-06-22T07:59:59;33.25;28.50;17.25
21358;PMS7003;13506;50.852;20.632;2023-06-22T08:02:38;27.00;25.00;14.25
21358;PMS7003;13506;50.852;20.632;2023-06-22T08:05:06;31.50;26.75;18.00
21358;PMS7003;13506;50.852;20.632;2023-06-22T08:07:35;34.50;27.00;15.75
21358;PMS7003;13506;50.852;20.632;2023-06-22T08:10:06;21.25;20.00;13.50
21358;PMS7003;13506;50.852;20.632;2023-06-22T08:12:37;28.25;23.75;13.00
21358;PMS7003;13506;50.852;20.632;2023-06-22T08:15:06;28.25;25.00;14.00
21358;PMS7003;13506;50.852;20.632;2023-06-22T08:17:36;24.50;22.25;14.00
21358;PMS7003;13506;50.852;20.632;2023-06-22T08:20:04;24.00;22.00;12.25
21358;PMS7003;13506;50.852;20.632;2023-06-22T08:22:35;25.25;22.50;15.00
21358;PMS7003;13506;50.852;20.632;2023-06-22T08:25:03;24.25;21.25;14.00
21358;PMS7003;13506;50.852;20.632;2023-06-22T08:27:35;27.75;21.50;13.50
21358;PMS7003;13506;50.852;20.632;2023-06-22T08:30:03;23.75;20.50;13.00
21358;PMS7003;13506;50.852;20.632;2023-06-22T08:32:32;23.00;18.50;12.00
21358;PMS7003;13506;50.852;20.632;2023-06-22T08:35:00;22.00;21.00;12.00
21358;PMS7003;13506;50.852;20.632;2023-06-22T08:37:28;25.00;21.50;12.75
21358;PMS7003;13506;50.852;20.632;2023-06-22T08:39:57;23.50;20.50;11.75
21358;PMS7003;13506;50.852;20.632;2023-06-22T08:42:28;21.00;20.25;12.00
21358;PMS7003;13506;50.852;20.632;2023-06-22T08:44:56;21.75;20.50;12.25
21358;PMS7003;13506;50.852;20.632;2023-06-22T08:47:27;19.00;17.50;12.00
21358;PMS7003;13506;50.852;20.632;2023-06-22T08:49:55;23.75;20.50;12.50
21358;PMS7003;13506;50.852;20.632;2023-06-22T08:52:23;22.75;22.50;13.00
21358;PMS7003;13506;50.852;20.632;2023-06-22T08:54:52;22.50;19.50;13.00
21358;PMS7003;13506;50.852;20.632;2023-06-22T08:57:20;22.00;20.25;13.00
21358;PMS7003;13506;50.852;20.632;2023-06-22T08:59:50;19.00;18.00;12.50
21358;PMS7003;13506;50.852;20.632;2023-06-22T09:02:18;25.25;23.00;13.25
21358;PMS7003;13506;50.852;20.632;2023-06-22T09:04:46;20.25;20.00;12.00
21358;PMS7003;13506;50.852;20.632;2023-06-22T09:07:21;24.25;19.50;11.75
21358;PMS7003;13506;50.852;20.632;2023-06-22T09:09:50;22.25;20.25;12.50
21358;PMS7003;13506;50.852;20.632;2023-06-22T09:12:20;23.50;23.25;14.00
21358;PMS7003;13506;50.852;20.632;2023-06-22T09:14:52;23.75;23.00;14.00
21358;PMS7003;13506;50.852;20.632;2023-06-22T09:17:21;20.25;18.50;13.00
21358;PMS7003;13506;50.852;20.632;2023-06-22T09:19:49;21.75;18.75;11.00
21358;PMS7003;13506;50.852;20.632;2023-06-22T09:22:17;19.75;17.25;10.00
21358;PMS7003;13506;50.852;20.632;2023-06-22T09:24:45;22.25;18.00;11.75
21358;PMS7003;13506;50.852;20.632;2023-06-22T09:27:13;16.50;15.50;10.00
21358;PMS7003;13506;50.852;20.632;2023-06-22T09:29:41;15.00;14.25;8.50
21358;PMS7003;13506;50.852;20.632;2023-06-22T09:32:11;19.75;17.25;10.50
21358;PMS7003;13506;50.852;20.632;2023-06-22T09:34:39;19.00;17.75;11.00
21358;PMS7003;13506;50.852;20.632;2023-06-22T09:37:07;18.75;16.50;10.25
21358;PMS7003;13506;50.852;20.632;2023-06-22T09:39:35;20.50;18.00;10.00
21358;PMS7003;13506;50.852;20.632;2023-06-22T09:42:04;19.00;16.00;9.75
21358;PMS7003;13506;50.852;20.632;2023-06-22T09:44:33;21.25;18.00;10.50
21358;PMS7003;13506;50.852;20.632;2023-06-22T09:47:01;19.75;18.25;12.00
21358;PMS7003;13506;50.852;20.632;2023-06-22T09:49:31;20.00;17.50;10.00
21358;PMS7003;13506;50.852;20.632;2023-06-22T09:51:59;19.75;17.75;11.00
21358;PMS7003;13506;50.852;20.632;2023-06-22T09:54:28;17.00;15.50;9.00
21358;PMS7003;13506;50.852;20.632;2023-06-22T09:56:56;17.50;16.25;10.00
21358;PMS7003;13506;50.852;20.632;2023-06-22T09:59:24;15.25;15.25;9.00
21358;PMS7003;13506;50.852;20.632;2023-06-22T10:01:52;15.00;13.00;9.00
21358;PMS7003;13506;50.852;20.632;2023-06-22T10:04:20;16.75;15.50;9.00
21358;PMS7003;13506;50.852;20.632;2023-06-22T10:06:50;14.25;14.00;9.75
21358;PMS7003;13506;50.852;20.632;2023-06-22T10:09:18;14.00;13.25;8.25
21358;PMS7003;13506;50.852;20.632;2023-06-22T10:11:47;14.50;13.50;8.00
21358;PMS7003;13506;50.852;20.632;2023-06-22T10:14:15;13.00;12.25;7.25
21358;PMS7003;13506;50.852;20.632;2023-06-22T10:16:44;15.00;13.50;8.75
21358;PMS7003;13506;50.852;20.632;2023-06-22T10:19:12;14.00;12.50;8.00
21358;PMS7003;13506;50.852;20.632;2023-06-22T10:21:40;16.75;13.50;8.25
21358;PMS7003;13506;50.852;20.632;2023-06-22T10:24:09;12.25;12.25;8.00
21358;PMS7003;13506;50.852;20.632;2023-06-22T10:26:38;14.25;13.00;7.25
21358;PMS7003;13506;50.852;20.632;2023-06-22T10:29:05;16.75;14.25;7.75
21358;PMS7003;13506;50.852;20.632;2023-06-22T10:31:33;12.00;10.50;6.75
21358;PMS7003;13506;50.852;20.632;2023-06-22T10:34:01;11.25;10.25;6.00
21358;PMS7003;13506;50.852;20.632;2023-06-22T10:36:31;12.75;11.50;7.00
21358;PMS7003;13506;50.852;20.632;2023-06-22T10:38:59;11.25;10.50;6.50
21358;PMS7003;13506;50.852;20.632;2023-06-22T10:41:30;11.75;10.25;6.25
21358;PMS7003;13506;50.852;20.632;2023-06-22T10:43:57;12.25;12.25;7.25
21358;PMS7003;13506;50.852;20.632;2023-06-22T10:46:25;11.00;10.25;7.00
21358;PMS7003;13506;50.852;20.632;2023-06-22T10:48:53;14.50;11.75;7.00
21358;PMS7003;13506;50.852;20.632;2023-06-22T10:51:22;12.00;9.00;6.00
21358;PMS7003;13506;50.852;20.632;2023-06-22T10:53:53;30.75;26.50;16.25
21358;PMS7003;13506;50.852;20.632;2023-06-22T10:56:21;20.75;17.00;11.00
21358;PMS7003;13506;50.852;20.632;2023-06-22T10:58:51;18.75;16.25;10.25
21358;PMS7003;13506;50.852;20.632;2023-06-22T11:01:19;15.50;13.75;8.00
21358;PMS7003;13506;50.852;20.632;2023-06-22T11:03:49;13.50;12.75;8.25
21358;PMS7003;13506;50.852;20.632;2023-06-22T11:06:20;13.25;12.50;7.50
21358;PMS7003;13506;50.852;20.632;2023-06-22T11:08:48;15.75;14.75;8.00
21358;PMS7003;13506;50.852;20.632;2023-06-22T11:11:16;12.00;11.25;7.75
21358;PMS7003;13506;50.852;20.632;2023-06-22T11:13:44;13.50;12.50;8.00
21358;PMS7003;13506;50.852;20.632;2023-06-22T11:16:13;13.50;13.50;7.25
21358;PMS7003;13506;50.852;20.632;2023-06-22T11:18:41;13.50;11.25;8.00
21358;PMS7003;13506;50.852;20.632;2023-06-22T11:21:09;14.75;12.50;7.00
21358;PMS7003;13506;50.852;20.632;2023-06-22T11:23:38;15.25;13.25;7.25
21358;PMS7003;13506;50.852;20.632;2023-06-22T11:26:06;15.25;11.75;7.75
21358;PMS7003;13506;50.852;20.632;2023-06-22T11:28:34;11.50;11.25;7.00
21358;PMS7003;13506;50.852;20.632;2023-06-22T11:31:02;12.25;11.25;7.25
21358;PMS7003;13506;50.852;20.632;2023-06-22T11:33:33;12.75;11.75;7.00
21358;PMS7003;13506;50.852;20.632;2023-06-22T11:36:02;11.00;10.50;7.00
21358;PMS7003;13506;50.852;20.632;2023-06-22T11:38:30;12.00;10.75;6.00
21358;PMS7003;13506;50.852;20.632;2023-06-22T11:40:59;12.75;11.00;7.00
21358;PMS7003;13506;50.852;20.632;2023-06-22T11:43:27;13.50;11.50;7.50
21358;PMS7003;13506;50.852;20.632;2023-06-22T11:45:55;11.00;11.00;7.75
21358;PMS7003;13506;50.852;20.632;2023-06-22T11:48:23;22.00;19.25;12.75
21358;PMS7003;13506;50.852;20.632;2023-06-22T11:50:55;21.25;19.00;13.25
21358;PMS7003;13506;50.852;20.632;2023-06-22T11:53:24;11.00;10.25;7.00
21358;PMS7003;13506;50.852;20.632;2023-06-22T11:55:53;12.00;10.75;7.75
21358;PMS7003;13506;50.852;20.632;2023-06-22T11:58:22;12.50;11.25;7.50
21358;PMS7003;13506;50.852;20.632;2023-06-22T12:00:50;12.00;10.00;7.00
21358;PMS7003;13506;50.852;20.632;2023-06-22T12:03:18;9.25;9.00;6.00
21358;PMS7003;13506;50.852;20.632;2023-06-22T12:05:47;12.00;11.50;7.00
21358;PMS7003;13506;50.852;20.632;2023-06-22T12:08:17;12.00;10.50;6.25
21358;PMS7003;13506;50.852;20.632;2023-06-22T12:10:45;11.25;9.50;6.75
21358;PMS7003;13506;50.852;20.632;2023-06-22T12:13:13;10.50;10.00;6.00
21358;PMS7003;13506;50.852;20.632;2023-06-22T12:15:42;12.50;11.25;8.25
21358;PMS7003;13506;50.852;20.632;2023-06-22T12:18:10;11.25;11.25;6.75
21358;PMS7003;13506;50.852;20.632;2023-06-22T12:20:40;14.25;9.75;6.75
21358;PMS7003;13506;50.852;20.632;2023-06-22T12:23:08;14.25;12.50;7.50
21358;PMS7003;13506;50.852;20.632;2023-06-22T12:25:38;12.50;11.00;6.00
21358;PMS7003;13506;50.852;20.632;2023-06-22T12:28:05;11.00;11.00;6.00
21358;PMS7003;13506;50.852;20.632;2023-06-22T12:30:33;13.50;11.00;7.00
21358;PMS7003;13506;50.852;20.632;2023-06-22T12:33:01;11.25;10.00;6.25
21358;PMS7003;13506;50.852;20.632;2023-06-22T12:35:29;11.75;11.00;7.00
21358;PMS7003;13506;50.852;20.632;2023-06-22T12:37:57;11.00;9.25;6.50
21358;PMS7003;13506;50.852;20.632;2023-06-22T12:40:26;13.25;12.00;7.25
21358;PMS7003;13506;50.852;20.632;2023-06-22T12:42:55;16.25;15.75;11.00
21358;PMS7003;13506;50.852;20.632;2023-06-22T12:45:23;11.25;9.25;6.00
21358;PMS7003;13506;50.852;20.632;2023-06-22T12:47:54;10.75;9.00;6.00
21358;PMS7003;13506;50.852;20.632;2023-06-22T12:50:22;10.50;9.25;6.75
21358;PMS7003;13506;50.852;20.632;2023-06-22T12:52:50;11.00;9.75;7.00
21358;PMS7003;13506;50.852;20.632;2023-06-22T12:55:18;10.00;9.75;5.75
21358;PMS7003;13506;50.852;20.632;2023-06-22T12:57:47;11.50;9.00;5.00
21358;PMS7003;13506;50.852;20.632;2023-06-22T13:00:17;11.25;9.25;5.00
21358;PMS7003;13506;50.852;20.632;2023-06-22T13:02:45;10.50;9.75;6.00
21358;PMS7003;13506;50.852;20.632;2023-06-22T13:05:13;9.25;9.00;6.25
21358;PMS7003;13506;50.852;20.632;2023-06-22T13:07:49;9.50;9.50;6.00
21358;PMS7003;13506;50.852;20.632;2023-06-22T13:10:19;11.25;10.00;5.00
21358;PMS7003;13506;50.852;20.632;2023-06-22T13:12:47;10.00;9.50;6.75
21358;PMS7003;13506;50.852;20.632;2023-06-22T13:15:16;10.75;10.50;6.25
21358;PMS7003;13506;50.852;20.632;2023-06-22T13:17:44;10.75;10.75;6.00
21358;PMS7003;13506;50.852;20.632;2023-06-22T13:20:12;11.75;9.75;6.00
21358;PMS7003;13506;50.852;20.632;2023-06-22T13:22:41;12.50;10.75;6.25
21358;PMS7003;13506;50.852;20.632;2023-06-22T13:25:09;11.00;10.00;6.75
21358;PMS7003;13506;50.852;20.632;2023-06-22T13:27:38;12.75;12.00;7.00
21358;PMS7003;13506;50.852;20.632;2023-06-22T13:30:07;11.00;9.50;6.50
21358;PMS7003;13506;50.852;20.632;2023-06-22T13:32:37;10.50;10.50;7.00
21358;PMS7003;13506;50.852;20.632;2023-06-22T13:35:07;10.50;10.00;6.50
21358;PMS7003;13506;50.852;20.632;2023-06-22T13:37:36;14.50;13.75;8.25
21358;PMS7003;13506;50.852;20.632;2023-06-22T13:40:05;12.25;10.75;6.25
21358;PMS7003;13506;50.852;20.632;2023-06-22T13:42:34;14.25;13.00;7.75
21358;PMS7003;13506;50.852;20.632;2023-06-22T13:45:02;17.75;16.00;11.25
21358;PMS7003;13506;50.852;20.632;2023-06-22T13:47:30;14.50;13.50;7.25
21358;PMS7003;13506;50.852;20.632;2023-06-22T13:50:00;15.50;13.50;8.75
21358;PMS7003;13506;50.852;20.632;2023-06-22T13:52:28;12.75;12.00;8.00